Time;durP1;ratioP1;P1;durP2;ratioP2;P2;SDS_P1;SDS_P2;PMS_P1;PMS_P2;Temp;Humidity;BMP_temperature;BMP_pressure;BME280_temperature;BME280_humidity;BME280_pressure;Samples;Min_cycle;Max_cycle;Signal;HPM_P1;HPM_P2
2022/04/22 00:00:12;;;;;;;12.2;9.35;;;;;;;6.14;48.97266;93895.34;;;;
2022/04/22 00:01:13;;;;;;;12.2;9.35;;;;;;;6.14;48.97266;93895.34;;;;
2022/04/22 00:02:13;;;;;;;12.2;9.35;;;;;;;6.14;48.97266;93895.34;;;;
2022/04/22 00:03:14;;;;;;;12.2;9.35;;;;;;;6.14;48.97266;93895.34;;;;
2022/04/22 00:04:14;;;;;;;12.2;9.35;;;;;;;6.14;48.97266;93895.34;;;;
2022/04/22 00:05:15;;;;;;;12.2;9.35;;;;;;;6.14;48.97266;93895.34;;;;
2022/04/22 00:06:15;;;;;;;12.2;9.35;;;;;;;6.14;48.97266;93895.34;;;;
2022/04/22 00:07:16;;;;;;;12.2;9.35;;;;;;;6.14;48.97266;93895.34;;;;
2022/04/22 00:08:16;;;;;;;11.75;8.95;;;;;;;6.02;49.18359;93892.35;;;;
2022/04/22 00:09:17;;;;;;;11.75;8.95;;;;;;;6.02;49.18359;93892.35;;;;
2022/04/22 00:10:17;;;;;;;11.75;8.95;;;;;;;6.02;49.18359;93892.35;;;;
2022/04/22 00:11:33;;;;;;;11.75;8.95;;;;;;;6.02;49.18359;93892.35;;;;
2022/04/22 00:12:34;;;;;;;11.75;8.95;;;;;;;6.02;49.18359;93892.35;;;;
2022/04/22 00:13:34;;;;;;;11.75;8.95;;;;;;;6.02;49.18359;93892.35;;;;
2022/04/22 00:14:35;;;;;;;11.75;8.95;;;;;;;6.02;49.18359;93892.35;;;;
2022/04/22 00:15:35;;;;;;;11.75;8.95;;;;;;;6.02;49.18359;93892.35;;;;
2022/04/22 00:16:36;;;;;;;11.75;8.95;;;;;;;6.02;49.18359;93892.35;;;;
2022/04/22 00:17:36;;;;;;;11.75;8.95;;;;;;;6.02;49.18359;93892.35;;;;
2022/04/22 00:18:37;;;;;;;10.7;9;;;;;;;5.86;49.36816;93877.89;;;;
2022/04/22 00:19:38;;;;;;;10.7;9;;;;;;;5.86;49.36816;93877.89;;;;
2022/04/22 00:20:39;;;;;;;10.7;9;;;;;;;5.86;49.36816;93877.89;;;;
2022/04/22 00:21:41;;;;;;;10.7;9;;;;;;;5.86;49.36816;93877.89;;;;
2022/04/22 00:22:42;;;;;;;10.7;9;;;;;;;5.86;49.36816;93877.89;;;;
2022/04/22 00:23:43;;;;;;;10.7;9;;;;;;;5.86;49.36816;93877.89;;;;
2022/04/22 00:24:44;;;;;;;10.7;9;;;;;;;5.86;49.36816;93877.89;;;;
2022/04/22 00:25:44;;;;;;;10.7;9;;;;;;;5.86;49.36816;93877.89;;;;
2022/04/22 00:26:44;;;;;;;10.7;9;;;;;;;5.86;49.36816;93877.89;;;;
2022/04/22 00:27:45;;;;;;;10.7;9;;;;;;;5.86;49.36816;93877.89;;;;
2022/04/22 00:28:46;;;;;;;10.7;9;;;;;;;5.86;49.36816;93877.89;;;;
2022/04/22 00:29:46;;;;;;;12.3;9.049999;;;;;;;5.66;49.6543;93867.3;;;;
2022/04/22 00:30:47;;;;;;;12.3;9.049999;;;;;;;5.66;49.6543;93867.3;;;;
2022/04/22 00:31:48;;;;;;;12.3;9.049999;;;;;;;5.66;49.6543;93867.3;;;;
2022/04/22 00:32:48;;;;;;;12.3;9.049999;;;;;;;5.66;49.6543;93867.3;;;;
2022/04/22 00:33:49;;;;;;;12.3;9.049999;;;;;;;5.66;49.6543;93867.3;;;;
2022/04/22 00:34:49;;;;;;;12.3;9.049999;;;;;;;5.66;49.6543;93867.3;;;;
2022/04/22 00:35:50;;;;;;;12.3;9.049999;;;;;;;5.66;49.6543;93867.3;;;;
2022/04/22 00:36:50;;;;;;;12.3;9.049999;;;;;;;5.66;49.6543;93867.3;;;;
2022/04/22 00:37:51;;;;;;;12.3;9.049999;;;;;;;5.66;49.6543;93867.3;;;;
2022/04/22 00:38:51;;;;;;;12.3;9.049999;;;;;;;5.66;49.6543;93867.3;;;;
2022/04/22 00:39:52;;;;;;;11.2;8.75;;;;;;;5.51;50.09473;93854.03;;;;
2022/04/22 00:40:55;;;;;;;11.2;8.75;;;;;;;5.51;50.09473;93854.03;;;;
2022/04/22 00:41:55;;;;;;;11.2;8.75;;;;;;;5.51;50.09473;93854.03;;;;
2022/04/22 00:42:56;;;;;;;11.2;8.75;;;;;;;5.51;50.09473;93854.03;;;;
2022/04/22 00:43:56;;;;;;;11.2;8.75;;;;;;;5.51;50.09473;93854.03;;;;
2022/04/22 00:44:57;;;;;;;11.2;8.75;;;;;;;5.51;50.09473;93854.03;;;;
2022/04/22 00:45:57;;;;;;;11.2;8.75;;;;;;;5.51;50.09473;93854.03;;;;
2022/04/22 00:46:58;;;;;;;11.2;8.75;;;;;;;5.51;50.09473;93854.03;;;;
2022/04/22 00:47:58;;;;;;;11.2;8.75;;;;;;;5.51;50.09473;93854.03;;;;
2022/04/22 00:48:58;;;;;;;11.2;8.75;;;;;;;5.51;50.09473;93854.03;;;;
2022/04/22 00:49:59;;;;;;;11.2;8.75;;;;;;;5.51;50.09473;93854.03;;;;
2022/04/22 00:50:59;;;;;;;12.1;9.150002;;;;;;;5.44;50.24512;93838.64;;;;
2022/04/22 00:52:00;;;;;;;12.1;9.150002;;;;;;;5.44;50.24512;93838.64;;;;
2022/04/22 00:53:02;;;;;;;12.1;9.150002;;;;;;;5.44;50.24512;93838.64;;;;
2022/04/22 00:54:03;;;;;;;12.1;9.150002;;;;;;;5.44;50.24512;93838.64;;;;
2022/04/22 00:55:04;;;;;;;12.1;9.150002;;;;;;;5.44;50.24512;93838.64;;;;
2022/04/22 00:56:07;;;;;;;12.1;9.150002;;;;;;;5.44;50.24512;93838.64;;;;
2022/04/22 00:57:10;;;;;;;12.1;9.150002;;;;;;;5.44;50.24512;93838.64;;;;
2022/04/22 00:58:11;;;;;;;12.1;9.150002;;;;;;;5.44;50.24512;93838.64;;;;
2022/04/22 00:59:12;;;;;;;12.1;9.150002;;;;;;;5.44;50.24512;93838.64;;;;
2022/04/22 01:00:12;;;;;;;12.1;9.150002;;;;;;;5.44;50.24512;93838.64;;;;
2022/04/22 01:01:14;;;;;;;12.5;8.95;;;;;;;5.32;50.36035;93826.67;;;;
2022/04/22 01:02:14;;;;;;;12.5;8.95;;;;;;;5.32;50.36035;93826.67;;;;
2022/04/22 01:03:15;;;;;;;12.5;8.95;;;;;;;5.32;50.36035;93826.67;;;;
2022/04/22 01:10:01;;;;;;;12.5;8.95;;;;;;;5.32;50.36035;93826.67;;;;
2022/04/22 01:11:02;;;;;;;12.5;8.95;;;;;;;5.32;50.36035;93826.67;;;;
2022/04/22 01:12:03;;;;;;;12.3;9.6;;;;;;;5.19;50.54688;93814.9;;;;
2022/04/22 01:13:07;;;;;;;12.3;9.6;;;;;;;5.19;50.54688;93814.9;;;;
2022/04/22 01:14:08;;;;;;;12.3;9.6;;;;;;;5.19;50.54688;93814.9;;;;
2022/04/22 01:15:09;;;;;;;12.3;9.6;;;;;;;5.19;50.54688;93814.9;;;;
2022/04/22 01:16:10;;;;;;;12.3;9.6;;;;;;;5.19;50.54688;93814.9;;;;
2022/04/22 01:17:10;;;;;;;12.3;9.6;;;;;;;5.19;50.54688;93814.9;;;;
2022/04/22 01:18:12;;;;;;;12.3;9.6;;;;;;;5.19;50.54688;93814.9;;;;
2022/04/22 01:19:13;;;;;;;12.3;9.6;;;;;;;5.19;50.54688;93814.9;;;;
2022/04/22 01:20:16;;;;;;;12.3;9.6;;;;;;;5.19;50.54688;93814.9;;;;
2022/04/22 01:21:16;;;;;;;12.3;9.6;;;;;;;5.19;50.54688;93814.9;;;;
2022/04/22 01:22:17;;;;;;;12.3;9.6;;;;;;;5.19;50.54688;93814.9;;;;
2022/04/22 01:23:17;;;;;;;12.3;9.6;;;;;;;5.19;50.54688;93814.9;;;;
2022/04/22 01:24:18;;;;;;;12.3;9.6;;;;;;;5.19;50.54688;93814.9;;;;
2022/04/22 01:25:18;;;;;;;12.3;9.6;;;;;;;5.19;50.54688;93814.9;;;;
2022/04/22 01:26:18;;;;;;;12.3;9.6;;;;;;;5.19;50.54688;93814.9;;;;
2022/04/22 01:27:19;;;;;;;12.3;9.6;;;;;;;5.19;50.54688;93814.9;;;;
2022/04/22 01:28:23;;;;;;;12.3;9.6;;;;;;;5.19;50.54688;93814.9;;;;
2022/04/22 01:29:24;;;;;;;12.3;9.6;;;;;;;5.19;50.54688;93814.9;;;;
2022/04/22 01:30:25;;;;;;;12.3;9.6;;;;;;;5.19;50.54688;93814.9;;;;
2022/04/22 01:31:26;;;;;;;12.3;9.6;;;;;;;5.19;50.54688;93814.9;;;;
2022/04/22 01:32:27;;;;;;;12.3;9.6;;;;;;;5.19;50.54688;93814.9;;;;
2022/04/22 01:33:27;;;;;;;13.2;9.25;;;;;;;4.91;50.95117;93796.15;;;;
2022/04/22 01:34:28;;;;;;;13.2;9.25;;;;;;;4.91;50.95117;93796.15;;;;
2022/04/22 01:35:29;;;;;;;13.2;9.25;;;;;;;4.91;50.95117;93796.15;;;;
2022/04/22 01:36:29;;;;;;;13.2;9.25;;;;;;;4.91;50.95117;93796.15;;;;
2022/04/22 01:37:32;;;;;;;13.2;9.25;;;;;;;4.91;50.95117;93796.15;;;;
2022/04/22 01:38:32;;;;;;;13.2;9.25;;;;;;;4.91;50.95117;93796.15;;;;
2022/04/22 01:39:33;;;;;;;13.2;9.25;;;;;;;4.91;50.95117;93796.15;;;;
2022/04/22 01:40:33;;;;;;;13.2;9.25;;;;;;;4.91;50.95117;93796.15;;;;
2022/04/22 01:41:34;;;;;;;13.2;9.25;;;;;;;4.91;50.95117;93796.15;;;;
2022/04/22 01:42:34;;;;;;;13.2;9.25;;;;;;;4.91;50.95117;93796.15;;;;
2022/04/22 01:43:35;;;;;;;13.2;9.25;;;;;;;4.91;50.95117;93796.15;;;;
2022/04/22 01:44:36;;;;;;;12.5;9.450002;;;;;;;4.79;51.27734;93780.16;;;;
2022/04/22 01:45:37;;;;;;;12.5;9.450002;;;;;;;4.79;51.27734;93780.16;;;;
2022/04/22 01:46:37;;;;;;;12.5;9.450002;;;;;;;4.79;51.27734;93780.16;;;;
2022/04/22 01:47:38;;;;;;;12.5;9.450002;;;;;;;4.79;51.27734;93780.16;;;;
2022/04/22 01:48:38;;;;;;;12.5;9.450002;;;;;;;4.79;51.27734;93780.16;;;;
2022/04/22 01:49:39;;;;;;;12.5;9.450002;;;;;;;4.79;51.27734;93780.16;;;;
2022/04/22 01:50:39;;;;;;;12.5;9.450002;;;;;;;4.79;51.27734;93780.16;;;;
2022/04/22 01:51:40;;;;;;;12.5;9.450002;;;;;;;4.79;51.27734;93780.16;;;;
2022/04/22 01:52:41;;;;;;;12.5;9.450002;;;;;;;4.79;51.27734;93780.16;;;;
2022/04/22 01:53:41;;;;;;;12.5;9.450002;;;;;;;4.79;51.27734;93780.16;;;;
2022/04/22 01:54:42;;;;;;;12.2;9.499999;;;;;;;4.68;51.52832;93772.16;;;;
2022/04/22 01:55:42;;;;;;;12.2;9.499999;;;;;;;4.68;51.52832;93772.16;;;;
2022/04/22 01:56:43;;;;;;;12.2;9.499999;;;;;;;4.68;51.52832;93772.16;;;;
2022/04/22 01:57:43;;;;;;;12.2;9.499999;;;;;;;4.68;51.52832;93772.16;;;;
2022/04/22 01:58:44;;;;;;;12.2;9.499999;;;;;;;4.68;51.52832;93772.16;;;;
2022/04/22 01:59:46;;;;;;;12.2;9.499999;;;;;;;4.68;51.52832;93772.16;;;;
2022/04/22 02:00:47;;;;;;;12.2;9.499999;;;;;;;4.68;51.52832;93772.16;;;;
2022/04/22 02:01:47;;;;;;;12.2;9.499999;;;;;;;4.68;51.52832;93772.16;;;;
2022/04/22 02:02:48;;;;;;;12.2;9.499999;;;;;;;4.68;51.52832;93772.16;;;;
2022/04/22 02:03:48;;;;;;;12.2;9.499999;;;;;;;4.68;51.52832;93772.16;;;;
2022/04/22 02:04:49;;;;;;;12.2;9.499999;;;;;;;4.68;51.52832;93772.16;;;;
2022/04/22 02:05:50;;;;;;;12.3;9.749999;;;;;;;4.55;51.7041;93760.82;;;;
2022/04/22 02:06:50;;;;;;;12.3;9.749999;;;;;;;4.55;51.7041;93760.82;;;;
2022/04/22 02:07:51;;;;;;;12.3;9.749999;;;;;;;4.55;51.7041;93760.82;;;;
2022/04/22 02:08:51;;;;;;;12.3;9.749999;;;;;;;4.55;51.7041;93760.82;;;;
2022/04/22 02:09:52;;;;;;;12.3;9.749999;;;;;;;4.55;51.7041;93760.82;;;;
2022/04/22 02:10:52;;;;;;;12.3;9.749999;;;;;;;4.55;51.7041;93760.82;;;;
2022/04/22 02:11:53;;;;;;;12.3;9.749999;;;;;;;4.55;51.7041;93760.82;;;;
2022/04/22 02:12:53;;;;;;;12.3;9.749999;;;;;;;4.55;51.7041;93760.82;;;;
2022/04/22 02:13:54;;;;;;;12.3;9.749999;;;;;;;4.55;51.7041;93760.82;;;;
2022/04/22 02:14:54;;;;;;;12.3;9.749999;;;;;;;4.55;51.7041;93760.82;;;;
2022/04/22 02:15:55;;;;;;;12.3;9.749999;;;;;;;4.55;51.7041;93760.82;;;;
2022/04/22 02:16:55;;;;;;;12.95;10.1;;;;;;;4.48;52.0459;93758.8;;;;
2022/04/22 02:17:56;;;;;;;12.95;10.1;;;;;;;4.48;52.0459;93758.8;;;;
2022/04/22 02:18:57;;;;;;;12.95;10.1;;;;;;;4.48;52.0459;93758.8;;;;
2022/04/22 02:19:57;;;;;;;12.95;10.1;;;;;;;4.48;52.0459;93758.8;;;;
2022/04/22 02:20:58;;;;;;;12.95;10.1;;;;;;;4.48;52.0459;93758.8;;;;
2022/04/22 02:21:58;;;;;;;12.95;10.1;;;;;;;4.48;52.0459;93758.8;;;;
2022/04/22 02:22:59;;;;;;;12.95;10.1;;;;;;;4.48;52.0459;93758.8;;;;
2022/04/22 02:23:59;;;;;;;12.95;10.1;;;;;;;4.48;52.0459;93758.8;;;;
2022/04/22 02:25:00;;;;;;;12.95;10.1;;;;;;;4.48;52.0459;93758.8;;;;
2022/04/22 02:26:00;;;;;;;12.95;10.1;;;;;;;4.48;52.0459;93758.8;;;;
2022/04/22 02:32:15;;;;;;;13.4;9.25;;;;;;;4.39;52.31055;93759.83;;;;
2022/04/22 02:33:15;;;;;;;13.4;9.25;;;;;;;4.39;52.31055;93759.83;;;;
2022/04/22 02:34:18;;;;;;;13.4;9.25;;;;;;;4.39;52.31055;93759.83;;;;
2022/04/22 02:35:20;;;;;;;13.4;9.25;;;;;;;4.39;52.31055;93759.83;;;;
2022/04/22 02:36:21;;;;;;;13.4;9.25;;;;;;;4.39;52.31055;93759.83;;;;
2022/04/22 02:37:21;;;;;;;13.4;9.25;;;;;;;4.39;52.31055;93759.83;;;;
2022/04/22 02:38:22;;;;;;;11.65;8.999999;;;;;;;4.2;52.54395;93747.13;;;;
2022/04/22 02:39:22;;;;;;;11.65;8.999999;;;;;;;4.2;52.54395;93747.13;;;;
2022/04/22 02:45:34;;;;;;;11.65;8.999999;;;;;;;4.2;52.54395;93747.13;;;;
2022/04/22 02:46:34;;;;;;;11.65;8.999999;;;;;;;4.2;52.54395;93747.13;;;;
2022/04/22 02:47:35;;;;;;;11.65;8.999999;;;;;;;4.2;52.54395;93747.13;;;;
2022/04/22 02:48:35;;;;;;;13.9;10.35;;;;;;;4.04;52.87305;93735.42;;;;
2022/04/22 02:49:36;;;;;;;13.9;10.35;;;;;;;4.04;52.87305;93735.42;;;;
2022/04/22 02:50:37;;;;;;;13.9;10.35;;;;;;;4.04;52.87305;93735.42;;;;
2022/04/22 02:51:37;;;;;;;13.9;10.35;;;;;;;4.04;52.87305;93735.42;;;;
2022/04/22 02:52:38;;;;;;;13.9;10.35;;;;;;;4.04;52.87305;93735.42;;;;
2022/04/22 02:53:38;;;;;;;13.9;10.35;;;;;;;4.04;52.87305;93735.42;;;;
2022/04/22 02:54:39;;;;;;;13.9;10.35;;;;;;;4.04;52.87305;93735.42;;;;
2022/04/22 02:55:40;;;;;;;13.9;10.35;;;;;;;4.04;52.87305;93735.42;;;;
2022/04/22 02:56:46;;;;;;;13.9;10.35;;;;;;;4.04;52.87305;93735.42;;;;
2022/04/22 02:57:48;;;;;;;13.9;10.35;;;;;;;4.04;52.87305;93735.42;;;;
2022/04/22 02:58:48;;;;;;;12.65;10.15;;;;;;;3.97;53.05664;93724.88;;;;
2022/04/22 02:59:49;;;;;;;12.65;10.15;;;;;;;3.97;53.05664;93724.88;;;;
2022/04/22 03:00:49;;;;;;;12.65;10.15;;;;;;;3.97;53.05664;93724.88;;;;
2022/04/22 03:01:50;;;;;;;12.65;10.15;;;;;;;3.97;53.05664;93724.88;;;;
2022/04/22 03:02:51;;;;;;;12.65;10.15;;;;;;;3.97;53.05664;93724.88;;;;
2022/04/22 03:03:51;;;;;;;12.65;10.15;;;;;;;3.97;53.05664;93724.88;;;;
2022/04/22 03:04:52;;;;;;;12.65;10.15;;;;;;;3.97;53.05664;93724.88;;;;
2022/04/22 03:05:52;;;;;;;12.65;10.15;;;;;;;3.97;53.05664;93724.88;;;;
2022/04/22 03:06:55;;;;;;;12.65;10.15;;;;;;;3.97;53.05664;93724.88;;;;
2022/04/22 03:07:56;;;;;;;12.65;10.15;;;;;;;3.97;53.05664;93724.88;;;;
2022/04/22 03:08:56;;;;;;;12.65;10.15;;;;;;;3.97;53.05664;93724.88;;;;
2022/04/22 03:09:57;;;;;;;15.15;10.55;;;;;;;3.84;53.25195;93718.95;;;;
2022/04/22 03:10:57;;;;;;;15.15;10.55;;;;;;;3.84;53.25195;93718.95;;;;
2022/04/22 03:11:58;;;;;;;15.15;10.55;;;;;;;3.84;53.25195;93718.95;;;;
2022/04/22 03:12:58;;;;;;;15.15;10.55;;;;;;;3.84;53.25195;93718.95;;;;
2022/04/22 03:13:58;;;;;;;15.15;10.55;;;;;;;3.84;53.25195;93718.95;;;;
2022/04/22 03:14:59;;;;;;;15.15;10.55;;;;;;;3.84;53.25195;93718.95;;;;
2022/04/22 03:16:00;;;;;;;15.15;10.55;;;;;;;3.84;53.25195;93718.95;;;;
2022/04/22 03:17:02;;;;;;;15.15;10.55;;;;;;;3.84;53.25195;93718.95;;;;
2022/04/22 03:18:03;;;;;;;15.15;10.55;;;;;;;3.84;53.25195;93718.95;;;;
2022/04/22 03:19:04;;;;;;;15.15;10.55;;;;;;;3.84;53.25195;93718.95;;;;
2022/04/22 03:20:05;;;;;;;15.15;10.55;;;;;;;3.84;53.25195;93718.95;;;;
2022/04/22 03:21:07;;;;;;;15.15;10.05;;;;;;;3.67;53.5166;93709.08;;;;
2022/04/22 03:22:07;;;;;;;15.15;10.05;;;;;;;3.67;53.5166;93709.08;;;;
2022/04/22 03:23:08;;;;;;;15.15;10.05;;;;;;;3.67;53.5166;93709.08;;;;
2022/04/22 03:24:09;;;;;;;15.15;10.05;;;;;;;3.67;53.5166;93709.08;;;;
2022/04/22 03:25:10;;;;;;;15.15;10.05;;;;;;;3.67;53.5166;93709.08;;;;
2022/04/22 03:26:11;;;;;;;15.15;10.05;;;;;;;3.67;53.5166;93709.08;;;;
2022/04/22 03:27:12;;;;;;;15.15;10.05;;;;;;;3.67;53.5166;93709.08;;;;
2022/04/22 03:28:12;;;;;;;15.15;10.05;;;;;;;3.67;53.5166;93709.08;;;;
2022/04/22 03:29:13;;;;;;;15.15;10.05;;;;;;;3.67;53.5166;93709.08;;;;
2022/04/22 03:30:13;;;;;;;15.15;10.05;;;;;;;3.67;53.5166;93709.08;;;;
2022/04/22 03:31:14;;;;;;;13.95;10.75;;;;;;;3.54;53.7334;93698.66;;;;
2022/04/22 03:32:14;;;;;;;13.95;10.75;;;;;;;3.54;53.7334;93698.66;;;;
2022/04/22 03:33:17;;;;;;;13.95;10.75;;;;;;;3.54;53.7334;93698.66;;;;
2022/04/22 03:34:18;;;;;;;13.95;10.75;;;;;;;3.54;53.7334;93698.66;;;;
2022/04/22 03:35:19;;;;;;;13.95;10.75;;;;;;;3.54;53.7334;93698.66;;;;
2022/04/22 03:36:20;;;;;;;13.95;10.75;;;;;;;3.54;53.7334;93698.66;;;;
2022/04/22 03:37:20;;;;;;;13.95;10.75;;;;;;;3.54;53.7334;93698.66;;;;
2022/04/22 03:38:20;;;;;;;13.95;10.75;;;;;;;3.54;53.7334;93698.66;;;;
2022/04/22 03:39:22;;;;;;;13.95;10.75;;;;;;;3.54;53.7334;93698.66;;;;
2022/04/22 03:40:22;;;;;;;13.95;10.75;;;;;;;3.54;53.7334;93698.66;;;;
2022/04/22 03:41:23;;;;;;;13.95;10.75;;;;;;;3.54;53.7334;93698.66;;;;
2022/04/22 03:42:23;;;;;;;14.95;11.1;;;;;;;3.41;53.95996;93699.28;;;;
2022/04/22 03:43:25;;;;;;;14.95;11.1;;;;;;;3.41;53.95996;93699.28;;;;
2022/04/22 03:44:26;;;;;;;14.95;11.1;;;;;;;3.41;53.95996;93699.28;;;;
2022/04/22 03:45:27;;;;;;;14.95;11.1;;;;;;;3.41;53.95996;93699.28;;;;
2022/04/22 03:46:27;;;;;;;14.95;11.1;;;;;;;3.41;53.95996;93699.28;;;;
2022/04/22 03:47:27;;;;;;;14.95;11.1;;;;;;;3.41;53.95996;93699.28;;;;
2022/04/22 03:48:28;;;;;;;14.95;11.1;;;;;;;3.41;53.95996;93699.28;;;;
2022/04/22 03:49:28;;;;;;;14.95;11.1;;;;;;;3.41;53.95996;93699.28;;;;
2022/04/22 03:50:29;;;;;;;14.95;11.1;;;;;;;3.41;53.95996;93699.28;;;;
2022/04/22 03:51:29;;;;;;;14.95;11.1;;;;;;;3.41;53.95996;93699.28;;;;
2022/04/22 03:52:30;;;;;;;14.95;11;;;;;;;3.29;54.28418;93693.14;;;;
2022/04/22 03:53:31;;;;;;;14.95;11;;;;;;;3.29;54.28418;93693.14;;;;
2022/04/22 03:54:31;;;;;;;14.95;11;;;;;;;3.29;54.28418;93693.14;;;;
2022/04/22 03:55:31;;;;;;;14.95;11;;;;;;;3.29;54.28418;93693.14;;;;
2022/04/22 04:01:48;;;;;;;14.95;11;;;;;;;3.29;54.28418;93693.14;;;;
2022/04/22 04:02:48;;;;;;;14.95;11;;;;;;;3.29;54.28418;93693.14;;;;
2022/04/22 04:03:48;;;;;;;14.95;11;;;;;;;3.29;54.28418;93693.14;;;;
2022/04/22 04:04:50;;;;;;;14.95;11;;;;;;;3.29;54.28418;93693.14;;;;
2022/04/22 04:05:51;;;;;;;14.95;11;;;;;;;3.29;54.28418;93693.14;;;;
2022/04/22 04:06:51;;;;;;;14.95;11;;;;;;;3.29;54.28418;93693.14;;;;
2022/04/22 04:07:52;;;;;;;14.95;11;;;;;;;3.29;54.28418;93693.14;;;;
2022/04/22 04:15:57;;;;;;;14.95;11;;;;;;;3.29;54.28418;93693.14;;;;
2022/04/22 04:16:58;;;;;;;19.3;12.3;;;;;;;3.1;54.59766;93667.18;;;;
2022/04/22 04:17:58;;;;;;;19.3;12.3;;;;;;;3.1;54.59766;93667.18;;;;
2022/04/22 04:23:14;;;;;;;19.3;12.3;;;;;;;3.1;54.59766;93667.18;;;;
2022/04/22 04:24:15;;;;;;;19.3;12.3;;;;;;;3.1;54.59766;93667.18;;;;
2022/04/22 04:25:16;;;;;;;16.2;11.35;;;;;;;3.1;54.7041;93664.51;;;;
2022/04/22 04:26:16;;;;;;;16.2;11.35;;;;;;;3.1;54.7041;93664.51;;;;
2022/04/22 04:27:19;;;;;;;16.2;11.35;;;;;;;3.1;54.7041;93664.51;;;;
2022/04/22 04:28:19;;;;;;;16.2;11.35;;;;;;;3.1;54.7041;93664.51;;;;
2022/04/22 04:29:20;;;;;;;16.2;11.35;;;;;;;3.1;54.7041;93664.51;;;;
2022/04/22 04:30:21;;;;;;;16.2;11.35;;;;;;;3.1;54.7041;93664.51;;;;
2022/04/22 04:31:21;;;;;;;16.2;11.35;;;;;;;3.1;54.7041;93664.51;;;;
2022/04/22 04:32:22;;;;;;;16.2;11.35;;;;;;;3.1;54.7041;93664.51;;;;
2022/04/22 04:33:22;;;;;;;16.2;11.35;;;;;;;3.1;54.7041;93664.51;;;;
2022/04/22 04:34:24;;;;;;;16.2;11.35;;;;;;;3.1;54.7041;93664.51;;;;
2022/04/22 04:35:24;;;;;;;16.85;11.8;;;;;;;3.08;54.81738;93676.34;;;;
2022/04/22 04:36:25;;;;;;;16.85;11.8;;;;;;;3.08;54.81738;93676.34;;;;
2022/04/22 04:37:26;;;;;;;16.85;11.8;;;;;;;3.08;54.81738;93676.34;;;;
2022/04/22 04:38:27;;;;;;;16.85;11.8;;;;;;;3.08;54.81738;93676.34;;;;
2022/04/22 04:39:28;;;;;;;16.85;11.8;;;;;;;3.08;54.81738;93676.34;;;;
2022/04/22 04:40:28;;;;;;;16.85;11.8;;;;;;;3.08;54.81738;93676.34;;;;
2022/04/22 04:41:29;;;;;;;16.85;11.8;;;;;;;3.08;54.81738;93676.34;;;;
2022/04/22 04:42:29;;;;;;;16.85;11.8;;;;;;;3.08;54.81738;93676.34;;;;
2022/04/22 04:43:31;;;;;;;16.85;11.8;;;;;;;3.08;54.81738;93676.34;;;;
2022/04/22 04:44:31;;;;;;;16.85;11.8;;;;;;;3.08;54.81738;93676.34;;;;
2022/04/22 04:45:32;;;;;;;16.85;11.8;;;;;;;3.08;54.81738;93676.34;;;;
2022/04/22 04:46:32;;;;;;;12.9;9.400001;;;;;;;3.29;54.82422;93684.19;;;;
2022/04/22 04:47:32;;;;;;;12.9;9.400001;;;;;;;3.29;54.82422;93684.19;;;;
2022/04/22 04:48:38;;;;;;;12.9;9.400001;;;;;;;3.29;54.82422;93684.19;;;;
2022/04/22 04:49:39;;;;;;;12.9;9.400001;;;;;;;3.29;54.82422;93684.19;;;;
2022/04/22 04:50:40;;;;;;;12.9;9.400001;;;;;;;3.29;54.82422;93684.19;;;;
2022/04/22 04:51:40;;;;;;;12.9;9.400001;;;;;;;3.29;54.82422;93684.19;;;;
2022/04/22 04:52:41;;;;;;;12.9;9.400001;;;;;;;3.29;54.82422;93684.19;;;;
2022/04/22 04:53:42;;;;;;;12.9;9.400001;;;;;;;3.29;54.82422;93684.19;;;;
2022/04/22 04:54:42;;;;;;;12.9;9.400001;;;;;;;3.29;54.82422;93684.19;;;;
2022/04/22 04:55:43;;;;;;;12.9;9.400001;;;;;;;3.29;54.82422;93684.19;;;;
2022/04/22 04:56:43;;;;;;;13.5;9.050001;;;;;;;3.6;54.55566;93681.32;;;;
2022/04/22 04:57:44;;;;;;;13.5;9.050001;;;;;;;3.6;54.55566;93681.32;;;;
2022/04/22 04:58:45;;;;;;;13.5;9.050001;;;;;;;3.6;54.55566;93681.32;;;;
2022/04/22 04:59:45;;;;;;;13.5;9.050001;;;;;;;3.6;54.55566;93681.32;;;;
2022/04/22 05:00:46;;;;;;;13.5;9.050001;;;;;;;3.6;54.55566;93681.32;;;;
2022/04/22 05:01:46;;;;;;;13.5;9.050001;;;;;;;3.6;54.55566;93681.32;;;;
2022/04/22 05:02:47;;;;;;;13.5;9.050001;;;;;;;3.6;54.55566;93681.32;;;;
2022/04/22 05:03:47;;;;;;;13.5;9.050001;;;;;;;3.6;54.55566;93681.32;;;;
2022/04/22 05:04:48;;;;;;;13.5;9.050001;;;;;;;3.6;54.55566;93681.32;;;;
2022/04/22 05:05:48;;;;;;;13.5;9.050001;;;;;;;3.6;54.55566;93681.32;;;;
2022/04/22 05:06:49;;;;;;;13.5;9.050001;;;;;;;3.6;54.55566;93681.32;;;;
2022/04/22 05:07:49;;;;;;;14.7;9.15;;;;;;;3.92;54.3418;93690.17;;;;
2022/04/22 05:08:52;;;;;;;14.7;9.15;;;;;;;3.92;54.3418;93690.17;;;;
2022/04/22 05:09:52;;;;;;;14.7;9.15;;;;;;;3.92;54.3418;93690.17;;;;
2022/04/22 05:10:53;;;;;;;14.7;9.15;;;;;;;3.92;54.3418;93690.17;;;;
2022/04/22 05:11:54;;;;;;;14.7;9.15;;;;;;;3.92;54.3418;93690.17;;;;
2022/04/22 05:12:54;;;;;;;14.7;9.15;;;;;;;3.92;54.3418;93690.17;;;;
2022/04/22 05:13:55;;;;;;;14.7;9.15;;;;;;;3.92;54.3418;93690.17;;;;
2022/04/22 05:14:57;;;;;;;14.7;9.15;;;;;;;3.92;54.3418;93690.17;;;;
2022/04/22 05:15:57;;;;;;;14.7;9.15;;;;;;;3.92;54.3418;93690.17;;;;
2022/04/22 05:16:59;;;;;;;14.7;9.15;;;;;;;3.92;54.3418;93690.17;;;;
2022/04/22 05:17:59;;;;;;;13.9;10;;;;;;;4.32;54.14941;93675.92;;;;
2022/04/22 05:19:00;;;;;;;13.9;10;;;;;;;4.32;54.14941;93675.92;;;;
2022/04/22 05:20:01;;;;;;;13.9;10;;;;;;;4.32;54.14941;93675.92;;;;
2022/04/22 05:21:01;;;;;;;13.9;10;;;;;;;4.32;54.14941;93675.92;;;;
2022/04/22 05:22:01;;;;;;;13.9;10;;;;;;;4.32;54.14941;93675.92;;;;
2022/04/22 05:23:02;;;;;;;13.9;10;;;;;;;4.32;54.14941;93675.92;;;;
2022/04/22 05:24:03;;;;;;;13.9;10;;;;;;;4.32;54.14941;93675.92;;;;
2022/04/22 05:25:05;;;;;;;13.9;10;;;;;;;4.32;54.14941;93675.92;;;;
2022/04/22 05:26:07;;;;;;;13.9;10;;;;;;;4.32;54.14941;93675.92;;;;
2022/04/22 05:27:07;;;;;;;13.9;10;;;;;;;4.32;54.14941;93675.92;;;;
2022/04/22 05:28:08;;;;;;;13.9;10;;;;;;;4.32;54.14941;93675.92;;;;
2022/04/22 05:32:36;;;;;;;12.6;9.25;;;;;;;4.75;53.81152;93678.34;;;;
2022/04/22 05:33:37;;;;;;;12.6;9.25;;;;;;;4.75;53.81152;93678.34;;;;
2022/04/22 05:34:37;;;;;;;12.6;9.25;;;;;;;4.75;53.81152;93678.34;;;;
2022/04/22 05:35:37;;;;;;;12.6;9.25;;;;;;;4.75;53.81152;93678.34;;;;
2022/04/22 05:36:38;;;;;;;12.6;9.25;;;;;;;4.75;53.81152;93678.34;;;;
2022/04/22 05:37:39;;;;;;;12.6;9.25;;;;;;;4.75;53.81152;93678.34;;;;
2022/04/22 05:38:45;;;;;;;12.6;9.25;;;;;;;4.75;53.81152;93678.34;;;;
2022/04/22 05:39:46;;;;;;;13.3;9.35;;;;;;;5.21;53.65527;93671.01;;;;
2022/04/22 05:40:48;;;;;;;13.3;9.35;;;;;;;5.21;53.65527;93671.01;;;;
2022/04/22 05:41:48;;;;;;;13.3;9.35;;;;;;;5.21;53.65527;93671.01;;;;
2022/04/22 05:42:49;;;;;;;13.3;9.35;;;;;;;5.21;53.65527;93671.01;;;;
2022/04/22 05:43:51;;;;;;;13.3;9.35;;;;;;;5.21;53.65527;93671.01;;;;
2022/04/22 05:44:51;;;;;;;13.3;9.35;;;;;;;5.21;53.65527;93671.01;;;;
2022/04/22 05:45:53;;;;;;;13.3;9.35;;;;;;;5.21;53.65527;93671.01;;;;
2022/04/22 05:46:53;;;;;;;13.3;9.35;;;;;;;5.21;53.65527;93671.01;;;;
2022/04/22 05:47:53;;;;;;;13.3;9.35;;;;;;;5.21;53.65527;93671.01;;;;
2022/04/22 05:48:54;;;;;;;13.3;9.35;;;;;;;5.21;53.65527;93671.01;;;;
2022/04/22 05:49:55;;;;;;;13.3;9.35;;;;;;;5.21;53.65527;93671.01;;;;
2022/04/22 05:50:55;;;;;;;12.25;9.700001;;;;;;;5.69;53.49121;93664.14;;;;
2022/04/22 05:51:56;;;;;;;12.25;9.700001;;;;;;;5.69;53.49121;93664.14;;;;
2022/04/22 05:52:56;;;;;;;12.25;9.700001;;;;;;;5.69;53.49121;93664.14;;;;
2022/04/22 05:53:58;;;;;;;12.25;9.700001;;;;;;;5.69;53.49121;93664.14;;;;
2022/04/22 05:55:02;;;;;;;12.25;9.700001;;;;;;;5.69;53.49121;93664.14;;;;
2022/04/22 05:56:04;;;;;;;12.25;9.700001;;;;;;;5.69;53.49121;93664.14;;;;
2022/04/22 05:57:05;;;;;;;12.25;9.700001;;;;;;;5.69;53.49121;93664.14;;;;
2022/04/22 05:58:05;;;;;;;12.25;9.700001;;;;;;;5.69;53.49121;93664.14;;;;
2022/04/22 05:59:06;;;;;;;12.25;9.700001;;;;;;;5.69;53.49121;93664.14;;;;
2022/04/22 06:00:07;;;;;;;12.25;9.700001;;;;;;;5.69;53.49121;93664.14;;;;
2022/04/22 06:01:10;;;;;;;15.25;11.1;;;;;;;6.31;53.28125;93669.18;;;;
2022/04/22 06:02:10;;;;;;;15.25;11.1;;;;;;;6.31;53.28125;93669.18;;;;
2022/04/22 06:03:11;;;;;;;15.25;11.1;;;;;;;6.31;53.28125;93669.18;;;;
2022/04/22 06:04:11;;;;;;;15.25;11.1;;;;;;;6.31;53.28125;93669.18;;;;
2022/04/22 06:05:12;;;;;;;15.25;11.1;;;;;;;6.31;53.28125;93669.18;;;;
2022/04/22 06:06:15;;;;;;;15.25;11.1;;;;;;;6.31;53.28125;93669.18;;;;
2022/04/22 06:07:15;;;;;;;15.25;11.1;;;;;;;6.31;53.28125;93669.18;;;;
2022/04/22 06:13:26;;;;;;;15.25;11.1;;;;;;;6.31;53.28125;93669.18;;;;
2022/04/22 06:14:26;;;;;;;15.25;11.1;;;;;;;6.31;53.28125;93669.18;;;;
2022/04/22 06:15:27;;;;;;;15.25;11.1;;;;;;;6.31;53.28125;93669.18;;;;
2022/04/22 06:16:28;;;;;;;15.25;11.1;;;;;;;6.31;53.28125;93669.18;;;;
2022/04/22 06:17:29;;;;;;;15.25;11.1;;;;;;;6.31;53.28125;93669.18;;;;
2022/04/22 06:18:29;;;;;;;15.25;11.1;;;;;;;6.31;53.28125;93669.18;;;;
2022/04/22 06:19:30;;;;;;;15.25;11.1;;;;;;;6.31;53.28125;93669.18;;;;
2022/04/22 06:20:30;;;;;;;15.25;11.1;;;;;;;6.31;53.28125;93669.18;;;;
2022/04/22 06:21:32;;;;;;;15.25;11.1;;;;;;;6.31;53.28125;93669.18;;;;
2022/04/22 06:22:32;;;;;;;17.8;12.25;;;;;;;7.47;53.44531;93668.5;;;;
2022/04/22 06:23:34;;;;;;;17.8;12.25;;;;;;;7.47;53.44531;93668.5;;;;
2022/04/22 06:24:35;;;;;;;17.8;12.25;;;;;;;7.47;53.44531;93668.5;;;;
2022/04/22 06:25:35;;;;;;;17.8;12.25;;;;;;;7.47;53.44531;93668.5;;;;